createdAt,value
2022-12-04T00:01:59.469Z,2.05
2022-12-04T00:12:02.327Z,2.06
2022-12-04T00:22:05.347Z,2.07
2022-12-04T00:32:07.900Z,2.05
2022-12-04T00:42:10.588Z,2.06
2022-12-04T00:52:13.029Z,2.03
2022-12-04T01:02:16.197Z,2.05
2022-12-04T01:12:20.969Z,2.04
2022-12-04T01:22:23.840Z,2.07
2022-12-04T01:32:26.225Z,2.07
2022-12-04T01:42:28.944Z,2.06
2022-12-04T01:52:32.030Z,2.07
2022-12-04T02:02:37.492Z,2.07
2022-12-04T02:12:51.612Z,2.09
2022-12-04T02:23:03.502Z,2.11
2022-12-04T02:33:17.965Z,2.09
2022-12-04T02:43:41.937Z,2.11
2022-12-04T02:54:08.137Z,2.11
2022-12-04T03:04:25.974Z,2.10
2022-12-04T03:14:36.085Z,2.11
2022-12-04T03:24:45.290Z,2.11
2022-12-04T03:35:06.581Z,2.11
2022-12-04T03:45:44.938Z,2.12
2022-12-04T03:55:58.946Z,2.13
2022-12-04T04:06:06.459Z,2.14
2022-12-04T04:16:32.278Z,2.13
2022-12-04T04:26:38.184Z,2.14
2022-12-04T04:37:08.452Z,2.12
2022-12-04T04:47:19.372Z,2.08
2022-12-04T04:57:34.604Z,2.08
2022-12-04T05:07:37.126Z,2.07
2022-12-04T05:17:39.644Z,2.11
2022-12-04T05:27:42.460Z,2.10
2022-12-04T05:37:46.007Z,2.10
2022-12-04T05:47:48.455Z,2.09
2022-12-04T05:57:50.815Z,2.11
2022-12-04T06:07:53.220Z,2.11
2022-12-04T06:17:55.712Z,2.13
2022-12-04T06:27:58.017Z,2.10
2022-12-04T06:38:00.321Z,2.12
2022-12-04T06:48:03.008Z,2.08
2022-12-04T06:58:05.273Z,1.97
2022-12-04T07:08:07.746Z,1.86
2022-12-04T07:18:10.343Z,1.75
2022-12-04T07:28:13.254Z,1.73
2022-12-04T07:38:16.059Z,1.64
2022-12-04T07:48:18.747Z,1.59
2022-12-04T07:58:21.145Z,1.55
2022-12-04T08:08:24.112Z,1.53
2022-12-04T08:18:26.472Z,1.55
2022-12-04T08:28:29.873Z,1.67
2022-12-04T08:38:32.295Z,1.74
2022-12-04T08:48:35.504Z,1.78
2022-12-04T08:58:38.908Z,1.92
2022-12-04T09:08:42.203Z,2.00
2022-12-04T09:18:46.358Z,2.07
2022-12-04T09:28:50.887Z,2.12
2022-12-04T09:38:55.200Z,2.26
2022-12-04T09:49:02.758Z,2.30
2022-12-04T09:59:26.937Z,2.37
2022-12-04T10:09:38.933Z,2.44
2022-12-04T10:19:54.475Z,2.47
2022-12-04T10:30:08.765Z,2.47
2022-12-04T10:40:38.799Z,2.58
2022-12-04T10:50:41.963Z,2.75
2022-12-04T11:00:46.972Z,2.79
2022-12-04T11:11:01.679Z,2.76
2022-12-04T11:21:08.251Z,2.80
2022-12-04T11:31:18.738Z,2.79
2022-12-04T11:41:30.984Z,2.79
2022-12-04T11:51:39.957Z,2.64
2022-12-04T12:02:01.196Z,2.56
2022-12-04T12:12:15.013Z,2.56
2022-12-04T12:22:17.567Z,2.41
2022-12-04T12:32:34.950Z,2.28
2022-12-04T12:42:58.587Z,2.17
2022-12-04T12:53:09.407Z,2.18
2022-12-04T13:03:29.302Z,2.10
2022-12-04T13:13:35.883Z,2.16
2022-12-04T13:23:53.560Z,2.12
2022-12-04T13:34:16.207Z,2.15
2022-12-04T13:44:24.647Z,2.10
2022-12-04T13:54:37.634Z,2.18
2022-12-04T14:04:53.814Z,2.12
2022-12-04T14:15:09.667Z,2.18
2022-12-04T14:25:15.340Z,2.23
2022-12-04T14:35:23.472Z,2.23
2022-12-04T14:45:44.535Z,2.34
2022-12-04T14:56:07.115Z,2.22
2022-12-04T15:06:22.430Z,2.30
2022-12-04T15:16:25.662Z,2.29
2022-12-04T15:26:28.725Z,2.22
2022-12-04T15:36:47.823Z,2.13
2022-12-04T15:46:51.042Z,2.12
2022-12-04T15:57:14.723Z,2.03
2022-12-04T16:07:24.501Z,2.00
2022-12-04T16:17:32.638Z,2.00
2022-12-04T16:27:35.369Z,1.94
2022-12-04T16:37:38.138Z,1.96
2022-12-04T16:47:40.885Z,1.95
2022-12-04T16:57:43.861Z,1.90
2022-12-04T17:07:46.879Z,1.85
2022-12-04T17:17:50.269Z,1.86
2022-12-04T17:27:53.184Z,1.87
2022-12-04T17:37:57.422Z,1.88
2022-12-04T17:48:03.659Z,1.88
2022-12-04T17:58:06.440Z,1.91
2022-12-04T18:08:09.092Z,1.94
2022-12-04T18:18:11.880Z,1.89
2022-12-04T18:28:14.426Z,1.91
2022-12-04T18:38:17.207Z,1.84
2022-12-04T18:48:19.872Z,1.86
2022-12-04T18:58:23.320Z,1.83
2022-12-04T19:08:31.357Z,1.83
2022-12-04T19:18:37.203Z,1.84
2022-12-04T19:28:39.881Z,1.86
2022-12-04T19:38:43.659Z,1.83
2022-12-04T19:48:50.492Z,1.83
2022-12-04T19:58:55.187Z,1.84
2022-12-04T20:09:01.690Z,1.80
2022-12-04T20:19:08.399Z,1.83
2022-12-04T20:29:16.231Z,1.89
2022-12-04T20:39:20.166Z,1.93
2022-12-04T20:49:23.223Z,1.89
2022-12-04T20:59:26.352Z,1.92
2022-12-04T21:09:29.418Z,1.98
2022-12-04T21:19:32.637Z,2.05
2022-12-04T21:29:38.949Z,2.09
2022-12-04T21:39:42.989Z,2.08
2022-12-04T21:49:45.998Z,2.02
2022-12-04T21:59:49.201Z,2.07
2022-12-04T22:09:51.871Z,2.14
2022-12-04T22:19:55.100Z,2.23
2022-12-04T22:29:57.975Z,2.17
2022-12-04T22:40:00.648Z,2.18
2022-12-04T22:50:04.758Z,2.25
2022-12-04T23:00:09.755Z,2.23
2022-12-04T23:10:12.484Z,2.21
2022-12-04T23:20:15.078Z,2.25
2022-12-04T23:30:21.392Z,2.27
2022-12-04T23:40:26.860Z,2.28
2022-12-04T23:50:29.368Z,2.27
